sensor_id;sensor_type;location;lat;lon;timestamp;P1;durP1;ratioP1;P2;durP2;ratioP2
2710;SDS011;20721;47.402;8.550;2023-07-30T00:00:53;3.46;;;3.46;;
2710;SDS011;20721;47.402;8.550;2023-07-30T00:02:53;3.81;;;3.81;;
2710;SDS011;20721;47.402;8.550;2023-07-30T00:06:01;3.61;;;3.61;;
2710;SDS011;20721;47.402;8.550;2023-07-30T00:07:53;3.29;;;3.29;;
2710;SDS011;20721;47.402;8.550;2023-07-30T00:09:53;3.48;;;3.48;;
2710;SDS011;20721;47.402;8.550;2023-07-30T00:11:53;2.99;;;2.99;;
2710;SDS011;20721;47.402;8.550;2023-07-30T00:14:54;3.25;;;3.25;;
2710;SDS011;20721;47.402;8.550;2023-07-30T00:18:53;3.25;;;3.25;;
2710;SDS011;20721;47.402;8.550;2023-07-30T00:20:53;2.97;;;2.97;;
2710;SDS011;20721;47.402;8.550;2023-07-30T00:22:53;3.23;;;3.23;;
2710;SDS011;20721;47.402;8.550;2023-07-30T00:25:53;3.30;;;3.30;;
2710;SDS011;20721;47.402;8.550;2023-07-30T00:27:53;2.96;;;2.96;;
2710;SDS011;20721;47.402;8.550;2023-07-30T00:29:53;3.32;;;3.32;;
2710;SDS011;20721;47.402;8.550;2023-07-30T00:31:53;2.75;;;2.75;;
2710;SDS011;20721;47.402;8.550;2023-07-30T00:33:53;3.10;;;3.10;;
2710;SDS011;20721;47.402;8.550;2023-07-30T00:35:53;3.39;;;3.39;;
2710;SDS011;20721;47.402;8.550;2023-07-30T00:37:53;3.36;;;3.36;;
2710;SDS011;20721;47.402;8.550;2023-07-30T00:39:53;2.98;;;2.98;;
2710;SDS011;20721;47.402;8.550;2023-07-30T00:41:53;3.63;;;3.63;;
2710;SDS011;20721;47.402;8.550;2023-07-30T00:44:53;3.28;;;3.28;;
2710;SDS011;20721;47.402;8.550;2023-07-30T00:48:53;3.46;;;3.46;;
2710;SDS011;20721;47.402;8.550;2023-07-30T00:50:53;3.44;;;3.44;;
2710;SDS011;20721;47.402;8.550;2023-07-30T00:52:53;3.83;;;3.83;;
2710;SDS011;20721;47.402;8.550;2023-07-30T00:54:54;3.43;;;3.43;;
2710;SDS011;20721;47.402;8.550;2023-07-30T00:57:54;3.02;;;3.02;;
2710;SDS011;20721;47.402;8.550;2023-07-30T00:59:53;3.86;;;3.79;;
2710;SDS011;20721;47.402;8.550;2023-07-30T01:01:55;3.37;;;3.37;;
2710;SDS011;20721;47.402;8.550;2023-07-30T01:03:54;3.16;;;3.16;;
2710;SDS011;20721;47.402;8.550;2023-07-30T01:05:54;3.69;;;3.69;;
2710;SDS011;20721;47.402;8.550;2023-07-30T01:07:53;3.53;;;3.53;;
2710;SDS011;20721;47.402;8.550;2023-07-30T01:09:53;3.63;;;3.63;;
2710;SDS011;20721;47.402;8.550;2023-07-30T01:11:54;3.57;;;3.57;;
2710;SDS011;20721;47.402;8.550;2023-07-30T01:13:56;3.43;;;3.43;;
2710;SDS011;20721;47.402;8.550;2023-07-30T01:15:54;3.42;;;3.42;;
2710;SDS011;20721;47.402;8.550;2023-07-30T01:17:54;4.04;;;4.04;;
2710;SDS011;20721;47.402;8.550;2023-07-30T01:19:53;3.60;;;3.60;;
2710;SDS011;20721;47.402;8.550;2023-07-30T01:21:54;3.79;;;3.79;;
2710;SDS011;20721;47.402;8.550;2023-07-30T01:24:53;4.07;;;4.07;;
2710;SDS011;20721;47.402;8.550;2023-07-30T01:26:55;3.49;;;3.49;;
2710;SDS011;20721;47.402;8.550;2023-07-30T01:31:56;3.68;;;3.68;;
2710;SDS011;20721;47.402;8.550;2023-07-30T01:35:54;3.73;;;3.73;;
2710;SDS011;20721;47.402;8.550;2023-07-30T01:37:54;4.00;;;3.98;;
2710;SDS011;20721;47.402;8.550;2023-07-30T01:39:54;3.89;;;3.89;;
2710;SDS011;20721;47.402;8.550;2023-07-30T01:42:53;3.70;;;3.70;;
2710;SDS011;20721;47.402;8.550;2023-07-30T01:44:53;4.52;;;4.52;;
2710;SDS011;20721;47.402;8.550;2023-07-30T01:47:53;4.78;;;4.78;;
2710;SDS011;20721;47.402;8.550;2023-07-30T01:49:53;5.31;;;5.31;;
2710;SDS011;20721;47.402;8.550;2023-07-30T01:51:53;4.10;;;4.10;;
2710;SDS011;20721;47.402;8.550;2023-07-30T01:53:53;4.30;;;4.30;;
2710;SDS011;20721;47.402;8.550;2023-07-30T01:55:56;4.16;;;4.16;;
2710;SDS011;20721;47.402;8.550;2023-07-30T01:57:53;4.14;;;4.14;;
2710;SDS011;20721;47.402;8.550;2023-07-30T01:59:53;3.89;;;3.89;;
2710;SDS011;20721;47.402;8.550;2023-07-30T02:01:53;4.01;;;4.01;;
2710;SDS011;20721;47.402;8.550;2023-07-30T02:03:53;4.80;;;4.80;;
2710;SDS011;20721;47.402;8.550;2023-07-30T02:05:54;4.27;;;4.27;;
2710;SDS011;20721;47.402;8.550;2023-07-30T02:07:53;4.29;;;4.29;;
2710;SDS011;20721;47.402;8.550;2023-07-30T02:09:53;4.25;;;4.25;;
2710;SDS011;20721;47.402;8.550;2023-07-30T02:11:53;4.31;;;4.31;;
2710;SDS011;20721;47.402;8.550;2023-07-30T02:15:54;3.86;;;3.86;;
2710;SDS011;20721;47.402;8.550;2023-07-30T02:17:53;4.29;;;4.29;;
2710;SDS011;20721;47.402;8.550;2023-07-30T02:20:53;4.95;;;4.95;;
2710;SDS011;20721;47.402;8.550;2023-07-30T02:22:53;4.83;;;4.83;;
2710;SDS011;20721;47.402;8.550;2023-07-30T02:24:53;3.94;;;3.94;;
2710;SDS011;20721;47.402;8.550;2023-07-30T02:26:54;4.13;;;4.13;;
2710;SDS011;20721;47.402;8.550;2023-07-30T02:28:54;4.77;;;4.77;;
2710;SDS011;20721;47.402;8.550;2023-07-30T02:30:53;4.41;;;4.41;;
2710;SDS011;20721;47.402;8.550;2023-07-30T02:32:54;4.10;;;4.10;;
2710;SDS011;20721;47.402;8.550;2023-07-30T02:34:53;4.57;;;4.57;;
2710;SDS011;20721;47.402;8.550;2023-07-30T02:36:53;4.71;;;4.71;;
2710;SDS011;20721;47.402;8.550;2023-07-30T02:38:53;4.48;;;4.48;;
2710;SDS011;20721;47.402;8.550;2023-07-30T02:43:54;4.67;;;4.67;;
2710;SDS011;20721;47.402;8.550;2023-07-30T02:45:56;4.77;;;4.77;;
2710;SDS011;20721;47.402;8.550;2023-07-30T02:47:53;4.37;;;4.37;;
2710;SDS011;20721;47.402;8.550;2023-07-30T02:49:53;4.34;;;4.34;;
2710;SDS011;20721;47.402;8.550;2023-07-30T02:51:58;4.42;;;4.42;;
2710;SDS011;20721;47.402;8.550;2023-07-30T02:53:57;4.69;;;4.69;;
2710;SDS011;20721;47.402;8.550;2023-07-30T02:55:53;4.30;;;4.30;;
2710;SDS011;20721;47.402;8.550;2023-07-30T02:58:54;4.56;;;4.56;;
2710;SDS011;20721;47.402;8.550;2023-07-30T03:00:54;4.91;;;4.91;;
2710;SDS011;20721;47.402;8.550;2023-07-30T03:02:54;4.73;;;4.73;;
2710;SDS011;20721;47.402;8.550;2023-07-30T03:04:53;4.87;;;4.87;;
2710;SDS011;20721;47.402;8.550;2023-07-30T03:06:54;4.77;;;4.77;;
2710;SDS011;20721;47.402;8.550;2023-07-30T03:08:54;4.68;;;4.68;;
2710;SDS011;20721;47.402;8.550;2023-07-30T03:10:56;4.55;;;4.55;;
2710;SDS011;20721;47.402;8.550;2023-07-30T03:13:54;4.69;;;4.62;;
2710;SDS011;20721;47.402;8.550;2023-07-30T03:15:54;4.50;;;4.50;;
2710;SDS011;20721;47.402;8.550;2023-07-30T03:17:54;4.55;;;4.55;;
2710;SDS011;20721;47.402;8.550;2023-07-30T03:19:54;4.00;;;4.00;;
2710;SDS011;20721;47.402;8.550;2023-07-30T03:21:54;4.52;;;4.52;;
2710;SDS011;20721;47.402;8.550;2023-07-30T03:23:54;4.63;;;4.63;;
2710;SDS011;20721;47.402;8.550;2023-07-30T03:25:54;4.05;;;4.05;;
2710;SDS011;20721;47.402;8.550;2023-07-30T03:27:54;4.92;;;4.92;;
2710;SDS011;20721;47.402;8.550;2023-07-30T03:29:54;4.42;;;4.42;;
2710;SDS011;20721;47.402;8.550;2023-07-30T03:31:54;4.36;;;4.36;;
2710;SDS011;20721;47.402;8.550;2023-07-30T03:33:54;4.41;;;4.41;;
2710;SDS011;20721;47.402;8.550;2023-07-30T03:35:54;4.48;;;4.48;;
2710;SDS011;20721;47.402;8.550;2023-07-30T03:37:54;4.60;;;4.60;;
2710;SDS011;20721;47.402;8.550;2023-07-30T03:39:54;4.69;;;4.69;;
2710;SDS011;20721;47.402;8.550;2023-07-30T03:43:54;4.43;;;4.43;;
2710;SDS011;20721;47.402;8.550;2023-07-30T03:45:54;4.44;;;4.44;;
2710;SDS011;20721;47.402;8.550;2023-07-30T03:47:54;4.52;;;4.52;;
2710;SDS011;20721;47.402;8.550;2023-07-30T03:49:54;4.69;;;4.69;;
2710;SDS011;20721;47.402;8.550;2023-07-30T03:52:54;4.98;;;4.98;;
2710;SDS011;20721;47.402;8.550;2023-07-30T03:54:54;4.49;;;4.49;;
2710;SDS011;20721;47.402;8.550;2023-07-30T03:56:54;4.81;;;4.81;;
2710;SDS011;20721;47.402;8.550;2023-07-30T03:58:54;4.87;;;4.87;;
2710;SDS011;20721;47.402;8.550;2023-07-30T04:00:54;4.49;;;4.49;;
2710;SDS011;20721;47.402;8.550;2023-07-30T04:02:54;4.93;;;4.93;;
2710;SDS011;20721;47.402;8.550;2023-07-30T04:04:56;4.53;;;4.53;;
2710;SDS011;20721;47.402;8.550;2023-07-30T04:06:54;4.67;;;4.67;;
2710;SDS011;20721;47.402;8.550;2023-07-30T04:08:54;4.60;;;4.60;;
2710;SDS011;20721;47.402;8.550;2023-07-30T04:10:54;4.80;;;4.80;;
2710;SDS011;20721;47.402;8.550;2023-07-30T04:12:54;4.92;;;4.92;;
2710;SDS011;20721;47.402;8.550;2023-07-30T04:14:54;5.37;;;5.37;;
2710;SDS011;20721;47.402;8.550;2023-07-30T04:16:57;4.64;;;4.64;;
2710;SDS011;20721;47.402;8.550;2023-07-30T04:18:54;4.55;;;4.55;;
2710;SDS011;20721;47.402;8.550;2023-07-30T04:20:54;5.15;;;5.15;;
2710;SDS011;20721;47.402;8.550;2023-07-30T04:22:54;4.97;;;4.97;;
2710;SDS011;20721;47.402;8.550;2023-07-30T04:24:54;4.49;;;4.49;;
2710;SDS011;20721;47.402;8.550;2023-07-30T04:26:54;5.00;;;5.00;;
2710;SDS011;20721;47.402;8.550;2023-07-30T04:28:54;5.21;;;5.21;;
2710;SDS011;20721;47.402;8.550;2023-07-30T04:30:54;5.27;;;5.27;;
2710;SDS011;20721;47.402;8.550;2023-07-30T04:32:54;5.17;;;5.17;;
2710;SDS011;20721;47.402;8.550;2023-07-30T04:34:54;4.94;;;4.94;;
2710;SDS011;20721;47.402;8.550;2023-07-30T04:36:54;4.91;;;4.91;;
2710;SDS011;20721;47.402;8.550;2023-07-30T04:38:54;4.97;;;4.97;;
2710;SDS011;20721;47.402;8.550;2023-07-30T04:40:54;5.16;;;5.16;;
2710;SDS011;20721;47.402;8.550;2023-07-30T04:43:54;5.12;;;5.12;;
2710;SDS011;20721;47.402;8.550;2023-07-30T04:45:54;4.66;;;4.66;;
2710;SDS011;20721;47.402;8.550;2023-07-30T04:47:54;5.22;;;5.22;;
2710;SDS011;20721;47.402;8.550;2023-07-30T04:50:54;5.15;;;5.15;;
2710;SDS011;20721;47.402;8.550;2023-07-30T04:53:54;4.66;;;4.66;;
2710;SDS011;20721;47.402;8.550;2023-07-30T04:55:54;4.91;;;4.91;;
2710;SDS011;20721;47.402;8.550;2023-07-30T04:57:54;4.58;;;4.58;;
2710;SDS011;20721;47.402;8.550;2023-07-30T04:59:54;4.88;;;4.88;;
2710;SDS011;20721;47.402;8.550;2023-07-30T05:01:54;5.25;;;5.25;;
2710;SDS011;20721;47.402;8.550;2023-07-30T05:03:54;4.87;;;4.87;;
2710;SDS011;20721;47.402;8.550;2023-07-30T05:05:54;4.79;;;4.79;;
2710;SDS011;20721;47.402;8.550;2023-07-30T05:07:54;4.92;;;4.92;;
2710;SDS011;20721;47.402;8.550;2023-07-30T05:09:54;4.67;;;4.67;;
2710;SDS011;20721;47.402;8.550;2023-07-30T05:11:54;5.42;;;5.42;;
2710;SDS011;20721;47.402;8.550;2023-07-30T05:13:54;4.98;;;4.98;;
2710;SDS011;20721;47.402;8.550;2023-07-30T05:15:54;5.07;;;5.07;;
2710;SDS011;20721;47.402;8.550;2023-07-30T05:17:54;5.46;;;5.46;;
2710;SDS011;20721;47.402;8.550;2023-07-30T05:19:54;4.53;;;4.53;;
2710;SDS011;20721;47.402;8.550;2023-07-30T05:21:54;4.59;;;4.59;;
2710;SDS011;20721;47.402;8.550;2023-07-30T05:23:54;4.26;;;4.26;;
2710;SDS011;20721;47.402;8.550;2023-07-30T05:25:54;4.38;;;4.38;;
2710;SDS011;20721;47.402;8.550;2023-07-30T05:27:54;4.77;;;4.77;;
2710;SDS011;20721;47.402;8.550;2023-07-30T05:29:55;5.46;;;5.46;;
2710;SDS011;20721;47.402;8.550;2023-07-30T05:31:54;4.83;;;4.83;;
2710;SDS011;20721;47.402;8.550;2023-07-30T05:34:54;4.58;;;4.58;;
2710;SDS011;20721;47.402;8.550;2023-07-30T05:36:54;4.67;;;4.67;;
2710;SDS011;20721;47.402;8.550;2023-07-30T05:38:54;4.83;;;4.83;;
2710;SDS011;20721;47.402;8.550;2023-07-30T05:40:54;5.01;;;5.01;;
2710;SDS011;20721;47.402;8.550;2023-07-30T05:44:54;4.09;;;4.09;;
2710;SDS011;20721;47.402;8.550;2023-07-30T05:47:54;4.55;;;4.55;;
2710;SDS011;20721;47.402;8.550;2023-07-30T05:49:54;4.79;;;4.79;;
2710;SDS011;20721;47.402;8.550;2023-07-30T05:52:54;4.33;;;4.33;;
2710;SDS011;20721;47.402;8.550;2023-07-30T05:54:54;3.74;;;3.74;;
2710;SDS011;20721;47.402;8.550;2023-07-30T05:56:54;4.05;;;4.05;;
2710;SDS011;20721;47.402;8.550;2023-07-30T05:58:54;4.10;;;4.10;;
2710;SDS011;20721;47.402;8.550;2023-07-30T06:00:54;3.82;;;3.82;;
2710;SDS011;20721;47.402;8.550;2023-07-30T06:02:54;3.31;;;3.31;;
2710;SDS011;20721;47.402;8.550;2023-07-30T06:04:54;4.01;;;4.01;;
2710;SDS011;20721;47.402;8.550;2023-07-30T06:06:54;3.67;;;3.67;;
2710;SDS011;20721;47.402;8.550;2023-07-30T06:08:54;3.52;;;3.52;;
2710;SDS011;20721;47.402;8.550;2023-07-30T06:10:54;4.14;;;4.14;;
2710;SDS011;20721;47.402;8.550;2023-07-30T06:12:54;2.83;;;2.83;;
2710;SDS011;20721;47.402;8.550;2023-07-30T06:14:54;3.16;;;3.16;;
2710;SDS011;20721;47.402;8.550;2023-07-30T06:16:54;3.34;;;3.34;;
2710;SDS011;20721;47.402;8.550;2023-07-30T06:18:54;3.10;;;3.10;;
2710;SDS011;20721;47.402;8.550;2023-07-30T06:20:54;2.63;;;2.63;;
2710;SDS011;20721;47.402;8.550;2023-07-30T06:22:55;2.93;;;2.93;;
2710;SDS011;20721;47.402;8.550;2023-07-30T06:25:04;3.25;;;3.25;;
2710;SDS011;20721;47.402;8.550;2023-07-30T06:26:54;3.82;;;3.82;;
2710;SDS011;20721;47.402;8.550;2023-07-30T06:28:54;3.23;;;3.23;;
2710;SDS011;20721;47.402;8.550;2023-07-30T06:30:54;2.90;;;2.90;;
2710;SDS011;20721;47.402;8.550;2023-07-30T06:32:54;3.24;;;3.24;;
2710;SDS011;20721;47.402;8.550;2023-07-30T06:34:54;3.04;;;3.04;;
2710;SDS011;20721;47.402;8.550;2023-07-30T06:36:54;2.98;;;2.98;;
2710;SDS011;20721;47.402;8.550;2023-07-30T06:38:54;2.98;;;2.98;;
2710;SDS011;20721;47.402;8.550;2023-07-30T06:40:54;2.55;;;2.55;;
2710;SDS011;20721;47.402;8.550;2023-07-30T06:42:54;2.91;;;2.91;;
2710;SDS011;20721;47.402;8.550;2023-07-30T06:44:54;3.03;;;3.03;;
2710;SDS011;20721;47.402;8.550;2023-07-30T06:46:54;2.22;;;2.22;;
2710;SDS011;20721;47.402;8.550;2023-07-30T06:48:54;3.05;;;3.05;;
2710;SDS011;20721;47.402;8.550;2023-07-30T06:50:54;2.39;;;2.39;;
2710;SDS011;20721;47.402;8.550;2023-07-30T06:52:54;2.95;;;2.95;;
2710;SDS011;20721;47.402;8.550;2023-07-30T06:54:54;2.84;;;2.84;;
2710;SDS011;20721;47.402;8.550;2023-07-30T06:56:54;4.36;;;4.36;;
2710;SDS011;20721;47.402;8.550;2023-07-30T06:58:54;2.90;;;2.90;;
2710;SDS011;20721;47.402;8.550;2023-07-30T07:00:54;2.52;;;2.52;;
2710;SDS011;20721;47.402;8.550;2023-07-30T07:02:55;2.11;;;2.11;;
2710;SDS011;20721;47.402;8.550;2023-07-30T07:04:54;2.85;;;2.85;;
2710;SDS011;20721;47.402;8.550;2023-07-30T07:06:54;2.43;;;2.43;;
2710;SDS011;20721;47.402;8.550;2023-07-30T07:08:54;2.56;;;2.56;;
2710;SDS011;20721;47.402;8.550;2023-07-30T07:10:54;2.07;;;2.07;;
2710;SDS011;20721;47.402;8.550;2023-07-30T07:12:54;2.66;;;2.66;;
2710;SDS011;20721;47.402;8.550;2023-07-30T07:14:54;2.51;;;2.51;;
2710;SDS011;20721;47.402;8.550;2023-07-30T07:16:54;2.45;;;2.45;;
2710;SDS011;20721;47.402;8.550;2023-07-30T07:18:54;2.42;;;2.42;;
2710;SDS011;20721;47.402;8.550;2023-07-30T07:20:54;3.00;;;3.00;;
2710;SDS011;20721;47.402;8.550;2023-07-30T07:22:54;2.65;;;2.65;;
2710;SDS011;20721;47.402;8.550;2023-07-30T07:24:54;2.56;;;2.56;;
2710;SDS011;20721;47.402;8.550;2023-07-30T07:26:55;2.87;;;2.87;;
2710;SDS011;20721;47.402;8.550;2023-07-30T07:28:55;1.75;;;1.75;;
2710;SDS011;20721;47.402;8.550;2023-07-30T07:30:55;2.77;;;2.77;;
2710;SDS011;20721;47.402;8.550;2023-07-30T07:32:54;2.59;;;2.59;;
2710;SDS011;20721;47.402;8.550;2023-07-30T07:34:56;2.17;;;2.17;;
2710;SDS011;20721;47.402;8.550;2023-07-30T07:36:54;2.16;;;2.16;;
2710;SDS011;20721;47.402;8.550;2023-07-30T07:38:54;1.98;;;1.98;;
2710;SDS011;20721;47.402;8.550;2023-07-30T07:40:54;2.81;;;2.81;;
2710;SDS011;20721;47.402;8.550;2023-07-30T07:42:54;2.28;;;2.28;;
2710;SDS011;20721;47.402;8.550;2023-07-30T07:44:56;2.29;;;2.29;;
2710;SDS011;20721;47.402;8.550;2023-07-30T07:46:54;1.64;;;1.64;;
2710;SDS011;20721;47.402;8.550;2023-07-30T07:48:54;1.86;;;1.86;;
2710;SDS011;20721;47.402;8.550;2023-07-30T07:50:55;2.68;;;2.68;;
2710;SDS011;20721;47.402;8.550;2023-07-30T07:52:54;2.53;;;2.53;;
2710;SDS011;20721;47.402;8.550;2023-07-30T07:54:55;2.32;;;2.32;;
2710;SDS011;20721;47.402;8.550;2023-07-30T07:56:54;2.23;;;2.23;;
2710;SDS011;20721;47.402;8.550;2023-07-30T07:58:54;2.28;;;2.28;;
2710;SDS011;20721;47.402;8.550;2023-07-30T08:00:55;1.45;;;1.45;;
2710;SDS011;20721;47.402;8.550;2023-07-30T08:02:55;2.25;;;2.25;;
2710;SDS011;20721;47.402;8.550;2023-07-30T08:04:54;1.90;;;1.90;;
2710;SDS011;20721;47.402;8.550;2023-07-30T08:06:54;2.02;;;2.02;;
2710;SDS011;20721;47.402;8.550;2023-07-30T08:08:54;2.26;;;2.26;;
2710;SDS011;20721;47.402;8.550;2023-07-30T08:10:56;1.93;;;1.93;;
2710;SDS011;20721;47.402;8.550;2023-07-30T08:12:54;1.96;;;1.96;;
2710;SDS011;20721;47.402;8.550;2023-07-30T08:14:54;2.22;;;2.22;;
2710;SDS011;20721;47.402;8.550;2023-07-30T08:16:54;1.93;;;1.93;;
2710;SDS011;20721;47.402;8.550;2023-07-30T08:18:54;1.73;;;1.73;;
2710;SDS011;20721;47.402;8.550;2023-07-30T08:20:54;1.99;;;1.99;;
2710;SDS011;20721;47.402;8.550;2023-07-30T08:22:54;1.96;;;1.96;;
2710;SDS011;20721;47.402;8.550;2023-07-30T08:24:54;1.81;;;1.81;;
2710;SDS011;20721;47.402;8.550;2023-07-30T08:26:56;1.84;;;1.84;;
2710;SDS011;20721;47.402;8.550;2023-07-30T08:28:54;1.96;;;1.96;;
2710;SDS011;20721;47.402;8.550;2023-07-30T08:31:02;2.18;;;2.18;;
2710;SDS011;20721;47.402;8.550;2023-07-30T08:32:54;2.11;;;2.11;;
2710;SDS011;20721;47.402;8.550;2023-07-30T08:34:54;2.02;;;2.02;;
2710;SDS011;20721;47.402;8.550;2023-07-30T08:36:55;1.97;;;1.97;;
2710;SDS011;20721;47.402;8.550;2023-07-30T08:38:54;2.15;;;2.15;;
2710;SDS011;20721;47.402;8.550;2023-07-30T08:40:54;1.81;;;1.81;;
2710;SDS011;20721;47.402;8.550;2023-07-30T08:42:54;1.82;;;1.82;;
2710;SDS011;20721;47.402;8.550;2023-07-30T08:44:54;2.03;;;2.03;;
2710;SDS011;20721;47.402;8.550;2023-07-30T08:46:54;1.77;;;1.77;;
2710;SDS011;20721;47.402;8.550;2023-07-30T08:48:57;1.85;;;1.85;;
2710;SDS011;20721;47.402;8.550;2023-07-30T08:50:56;1.88;;;1.88;;
2710;SDS011;20721;47.402;8.550;2023-07-30T08:52:56;2.14;;;2.14;;
2710;SDS011;20721;47.402;8.550;2023-07-30T08:54:57;1.88;;;1.88;;
2710;SDS011;20721;47.402;8.550;2023-07-30T08:56:55;1.91;;;1.91;;
2710;SDS011;20721;47.402;8.550;2023-07-30T08:58:55;2.32;;;2.32;;
2710;SDS011;20721;47.402;8.550;2023-07-30T09:00:55;2.25;;;2.25;;
2710;SDS011;20721;47.402;8.550;2023-07-30T09:02:56;3.47;;;3.47;;
2710;SDS011;20721;47.402;8.550;2023-07-30T09:04:58;2.64;;;2.64;;
2710;SDS011;20721;47.402;8.550;2023-07-30T09:06:59;2.70;;;2.70;;
2710;SDS011;20721;47.402;8.550;2023-07-30T09:09:55;1.91;;;1.91;;
2710;SDS011;20721;47.402;8.550;2023-07-30T09:12:00;2.08;;;2.08;;
2710;SDS011;20721;47.402;8.550;2023-07-30T09:13:56;2.60;;;2.60;;
2710;SDS011;20721;47.402;8.550;2023-07-30T09:15:57;2.36;;;2.36;;
2710;SDS011;20721;47.402;8.550;2023-07-30T09:17:55;2.40;;;2.40;;
2710;SDS011;20721;47.402;8.550;2023-07-30T09:19:58;2.91;;;2.91;;
2710;SDS011;20721;47.402;8.550;2023-07-30T09:21:55;2.28;;;2.28;;
2710;SDS011;20721;47.402;8.550;2023-07-30T09:23:56;1.88;;;1.88;;
2710;SDS011;20721;47.402;8.550;2023-07-30T09:25:57;2.48;;;2.48;;
2710;SDS011;20721;47.402;8.550;2023-07-30T09:27:57;2.38;;;2.38;;
2710;SDS011;20721;47.402;8.550;2023-07-30T09:30:00;2.66;;;2.66;;
2710;SDS011;20721;47.402;8.550;2023-07-30T09:31:59;2.25;;;2.25;;
2710;SDS011;20721;47.402;8.550;2023-07-30T09:33:55;2.28;;;2.28;;
2710;SDS011;20721;47.402;8.550;2023-07-30T09:35:55;2.33;;;2.33;;
2710;SDS011;20721;47.402;8.550;2023-07-30T09:37:58;2.85;;;2.85;;
2710;SDS011;20721;47.402;8.550;2023-07-30T09:39:57;2.56;;;2.56;;
2710;SDS011;20721;47.402;8.550;2023-07-30T09:42:02;2.36;;;2.36;;
2710;SDS011;20721;47.402;8.550;2023-07-30T09:43:57;2.01;;;2.01;;
2710;SDS011;20721;47.402;8.550;2023-07-30T09:45:57;2.26;;;2.26;;
2710;SDS011;20721;47.402;8.550;2023-07-30T09:47:56;2.24;;;2.24;;
2710;SDS011;20721;47.402;8.550;2023-07-30T09:49:55;2.62;;;2.62;;
2710;SDS011;20721;47.402;8.550;2023-07-30T09:51:55;2.11;;;2.11;;
2710;SDS011;20721;47.402;8.550;2023-07-30T09:53:55;2.14;;;2.14;;
2710;SDS011;20721;47.402;8.550;2023-07-30T09:55:55;1.86;;;1.86;;
2710;SDS011;20721;47.402;8.550;2023-07-30T09:57:55;2.02;;;2.02;;
2710;SDS011;20721;47.402;8.550;2023-07-30T09:59:55;1.99;;;1.99;;
2710;SDS011;20721;47.402;8.550;2023-07-30T10:01:57;1.75;;;1.75;;
2710;SDS011;20721;47.402;8.550;2023-07-30T10:03:55;1.75;;;1.75;;
2710;SDS011;20721;47.402;8.550;2023-07-30T10:05:59;1.97;;;1.97;;
2710;SDS011;20721;47.402;8.550;2023-07-30T10:08:10;1.80;;;1.80;;
2710;SDS011;20721;47.402;8.550;2023-07-30T10:09:58;2.11;;;2.11;;
2710;SDS011;20721;47.402;8.550;2023-07-30T10:11:55;1.84;;;1.84;;
2710;SDS011;20721;47.402;8.550;2023-07-30T10:13:55;1.97;;;1.97;;
2710;SDS011;20721;47.402;8.550;2023-07-30T10:15:55;2.02;;;2.02;;
2710;SDS011;20721;47.402;8.550;2023-07-30T10:17:56;1.70;;;1.70;;
2710;SDS011;20721;47.402;8.550;2023-07-30T10:20:17;1.72;;;1.72;;
2710;SDS011;20721;47.402;8.550;2023-07-30T10:23:57;1.77;;;1.77;;
2710;SDS011;20721;47.402;8.550;2023-07-30T10:25:56;2.06;;;2.06;;
2710;SDS011;20721;47.402;8.550;2023-07-30T10:28:00;2.06;;;2.06;;
2710;SDS011;20721;47.402;8.550;2023-07-30T10:30:11;1.94;;;1.94;;
2710;SDS011;20721;47.402;8.550;2023-07-30T10:32:01;1.90;;;1.90;;
2710;SDS011;20721;47.402;8.550;2023-07-30T10:34:00;2.17;;;2.17;;
2710;SDS011;20721;47.402;8.550;2023-07-30T10:35:56;2.14;;;2.14;;
2710;SDS011;20721;47.402;8.550;2023-07-30T10:37:55;2.18;;;2.18;;
2710;SDS011;20721;47.402;8.550;2023-07-30T10:39:58;2.15;;;2.15;;
2710;SDS011;20721;47.402;8.550;2023-07-30T10:41:57;1.80;;;1.80;;
2710;SDS011;20721;47.402;8.550;2023-07-30T10:43:57;2.34;;;2.34;;
2710;SDS011;20721;47.402;8.550;2023-07-30T10:45:59;1.73;;;1.73;;
2710;SDS011;20721;47.402;8.550;2023-07-30T10:48:03;2.55;;;2.55;;
2710;SDS011;20721;47.402;8.550;2023-07-30T10:50:00;1.81;;;1.81;;
2710;SDS011;20721;47.402;8.550;2023-07-30T10:51:56;2.32;;;2.32;;
2710;SDS011;20721;47.402;8.550;2023-07-30T10:53:55;2.18;;;2.18;;
2710;SDS011;20721;47.402;8.550;2023-07-30T10:55:57;1.90;;;1.90;;
2710;SDS011;20721;47.402;8.550;2023-07-30T10:57:57;1.71;;;1.71;;
2710;SDS011;20721;47.402;8.550;2023-07-30T10:59:55;2.06;;;2.06;;
2710;SDS011;20721;47.402;8.550;2023-07-30T11:01:55;1.87;;;1.87;;
2710;SDS011;20721;47.402;8.550;2023-07-30T11:03:59;1.88;;;1.88;;
2710;SDS011;20721;47.402;8.550;2023-07-30T11:05:56;1.42;;;1.42;;
2710;SDS011;20721;47.402;8.550;2023-07-30T11:08:02;2.11;;;2.11;;
2710;SDS011;20721;47.402;8.550;2023-07-30T11:10:07;1.84;;;1.84;;
2710;SDS011;20721;47.402;8.550;2023-07-30T11:11:55;2.07;;;2.07;;
2710;SDS011;20721;47.402;8.550;2023-07-30T11:13:58;1.87;;;1.87;;
2710;SDS011;20721;47.402;8.550;2023-07-30T11:15:55;1.90;;;1.90;;
2710;SDS011;20721;47.402;8.550;2023-07-30T11:17:56;1.90;;;1.90;;
2710;SDS011;20721;47.402;8.550;2023-07-30T11:19:55;1.67;;;1.67;;
2710;SDS011;20721;47.402;8.550;2023-07-30T11:21:56;1.61;;;1.61;;
2710;SDS011;20721;47.402;8.550;2023-07-30T11:23:55;1.65;;;1.65;;
2710;SDS011;20721;47.402;8.550;2023-07-30T11:25:55;2.17;;;2.17;;
2710;SDS011;20721;47.402;8.550;2023-07-30T11:27:56;1.94;;;1.94;;
2710;SDS011;20721;47.402;8.550;2023-07-30T11:30:03;1.69;;;1.69;;
2710;SDS011;20721;47.402;8.550;2023-07-30T11:31:57;1.65;;;1.65;;
2710;SDS011;20721;47.402;8.550;2023-07-30T11:33:56;1.86;;;1.86;;
2710;SDS011;20721;47.402;8.550;2023-07-30T11:35:55;2.31;;;2.31;;
2710;SDS011;20721;47.402;8.550;2023-07-30T11:38:56;2.16;;;2.16;;
2710;SDS011;20721;47.402;8.550;2023-07-30T11:40:56;1.90;;;1.90;;
2710;SDS011;20721;47.402;8.550;2023-07-30T11:42:55;2.21;;;2.21;;
2710;SDS011;20721;47.402;8.550;2023-07-30T11:44:55;1.62;;;1.62;;
2710;SDS011;20721;47.402;8.550;2023-07-30T11:47:06;2.02;;;2.02;;
2710;SDS011;20721;47.402;8.550;2023-07-30T11:49:13;1.92;;;1.92;;
2710;SDS011;20721;47.402;8.550;2023-07-30T11:51:00;2.05;;;2.05;;
2710;SDS011;20721;47.402;8.550;2023-07-30T11:53:03;1.82;;;1.82;;
2710;SDS011;20721;47.402;8.550;2023-07-30T11:55:02;2.36;;;2.36;;
2710;SDS011;20721;47.402;8.550;2023-07-30T11:56:55;1.77;;;1.77;;
2710;SDS011;20721;47.402;8.550;2023-07-30T11:58:58;1.53;;;1.53;;
2710;SDS011;20721;47.402;8.550;2023-07-30T12:00:55;1.73;;;1.73;;
2710;SDS011;20721;47.402;8.550;2023-07-30T12:02:56;1.89;;;1.89;;
2710;SDS011;20721;47.402;8.550;2023-07-30T12:04:55;1.56;;;1.56;;
2710;SDS011;20721;47.402;8.550;2023-07-30T12:07:00;1.84;;;1.84;;
2710;SDS011;20721;47.402;8.550;2023-07-30T12:08:58;1.79;;;1.79;;
2710;SDS011;20721;47.402;8.550;2023-07-30T12:10:56;2.19;;;2.19;;
2710;SDS011;20721;47.402;8.550;2023-07-30T12:12:56;1.69;;;1.69;;
2710;SDS011;20721;47.402;8.550;2023-07-30T12:14:56;1.62;;;1.62;;
2710;SDS011;20721;47.402;8.550;2023-07-30T12:16:56;1.78;;;1.78;;
2710;SDS011;20721;47.402;8.550;2023-07-30T12:18:55;2.10;;;2.10;;
2710;SDS011;20721;47.402;8.550;2023-07-30T12:20:56;1.71;;;1.71;;
2710;SDS011;20721;47.402;8.550;2023-07-30T12:22:55;1.90;;;1.90;;
2710;SDS011;20721;47.402;8.550;2023-07-30T12:24:55;1.77;;;1.77;;
2710;SDS011;20721;47.402;8.550;2023-07-30T12:26:55;1.57;;;1.57;;
2710;SDS011;20721;47.402;8.550;2023-07-30T12:28:55;2.20;;;2.20;;
2710;SDS011;20721;47.402;8.550;2023-07-30T12:30:55;1.95;;;1.95;;
2710;SDS011;20721;47.402;8.550;2023-07-30T12:32:55;1.74;;;1.74;;
2710;SDS011;20721;47.402;8.550;2023-07-30T12:34:55;1.63;;;1.63;;
2710;SDS011;20721;47.402;8.550;2023-07-30T12:36:55;2.96;;;2.96;;
2710;SDS011;20721;47.402;8.550;2023-07-30T12:38:57;2.06;;;2.06;;
2710;SDS011;20721;47.402;8.550;2023-07-30T12:40:55;1.73;;;1.73;;
2710;SDS011;20721;47.402;8.550;2023-07-30T12:42:55;2.06;;;2.06;;
2710;SDS011;20721;47.402;8.550;2023-07-30T12:44:55;1.78;;;1.78;;
2710;SDS011;20721;47.402;8.550;2023-07-30T12:46:55;1.84;;;1.84;;
2710;SDS011;20721;47.402;8.550;2023-07-30T12:48:56;1.64;;;1.64;;
2710;SDS011;20721;47.402;8.550;2023-07-30T12:50:55;2.18;;;2.18;;
2710;SDS011;20721;47.402;8.550;2023-07-30T12:52:55;1.98;;;1.98;;